createdAt,value
2018-08-25T00:00:39.032Z,99312.08
2018-08-25T00:03:08.493Z,99321.08
2018-08-25T00:05:37.949Z,99321.30
2018-08-25T00:08:07.554Z,99315.34
2018-08-25T00:10:36.355Z,99318.86
2018-08-25T00:13:05.245Z,99319.41
2018-08-25T00:15:34.033Z,99316.75
2018-08-25T00:18:03.135Z,99317.55
2018-08-25T00:20:31.817Z,99318.39
2018-08-25T00:23:00.511Z,99318.92
2018-08-25T00:25:29.313Z,99316.78
2018-08-25T00:27:57.997Z,99318.66
2018-08-25T00:30:32.140Z,99320.30
2018-08-25T00:33:00.942Z,99330.34
2018-08-25T00:35:30.323Z,99321.94
2018-08-25T00:37:59.176Z,99319.25
2018-08-25T00:40:28.627Z,99320.05
2018-08-25T00:42:57.420Z,99320.62
2018-08-25T00:45:26.088Z,99329.84
2018-08-25T00:47:55.873Z,99330.92
2018-08-25T00:50:24.748Z,99331.19
2018-08-25T00:52:53.870Z,99334.17
2018-08-25T00:55:23.223Z,99338.25
2018-08-25T00:57:51.913Z,99345.84
2018-08-25T01:00:21.224Z,99340.94
2018-08-25T01:02:50.319Z,99342.57
2018-08-25T01:05:19.252Z,99348.55
2018-08-25T01:07:48.049Z,99348.02
2018-08-25T01:10:16.735Z,99354.80
2018-08-25T01:12:45.498Z,99360.20
2018-08-25T01:15:14.944Z,99359.39
2018-08-25T01:17:44.094Z,99364.27
2018-08-25T01:20:13.075Z,99366.45
2018-08-25T01:22:41.809Z,99372.66
2018-08-25T01:25:12.133Z,99376.99
2018-08-25T01:27:40.818Z,99381.87
2018-08-25T01:30:09.715Z,99374.54
2018-08-25T01:32:38.422Z,99378.07
2018-08-25T01:35:07.406Z,99375.91
2018-08-25T01:37:36.193Z,99375.36
2018-08-25T01:40:05.183Z,99374.81
2018-08-25T01:42:33.860Z,99368.87
2018-08-25T01:45:02.556Z,99369.37
2018-08-25T01:47:31.367Z,99367.45
2018-08-25T01:50:00.268Z,99368.81
2018-08-25T01:52:29.264Z,99368.00
2018-08-25T01:54:58.767Z,99374.22
2018-08-25T01:57:27.471Z,99377.20
2018-08-25T01:59:56.837Z,99373.39
2018-08-25T02:02:25.769Z,99372.05
2018-08-25T02:04:54.457Z,99370.41
2018-08-25T02:07:23.250Z,99375.52
2018-08-25T02:09:52.046Z,99376.84
2018-08-25T02:12:20.939Z,99375.77
2018-08-25T02:14:49.823Z,99375.46
2018-08-25T02:17:18.479Z,99378.16
2018-08-25T02:19:47.311Z,99375.94
2018-08-25T02:22:16.133Z,99374.58
2018-08-25T02:24:45.561Z,99377.83
2018-08-25T02:27:15.322Z,99377.63
2018-08-25T02:29:44.078Z,99366.28
2018-08-25T02:32:12.863Z,99363.30
2018-08-25T02:34:41.719Z,99364.89
2018-08-25T02:37:10.616Z,99368.64
2018-08-25T02:39:40.035Z,99359.73
2018-08-25T02:42:08.915Z,99359.20
2018-08-25T02:44:38.016Z,99358.66
2018-08-25T02:47:06.704Z,99349.74
2018-08-25T02:49:35.496Z,99343.53
2018-08-25T02:52:04.398Z,99333.23
2018-08-25T02:54:33.185Z,99325.14
2018-08-25T02:57:02.451Z,99324.84
2018-08-25T02:59:31.387Z,99322.87
2018-08-25T03:02:00.036Z,99327.20
2018-08-25T03:04:28.877Z,99333.09
2018-08-25T03:06:57.663Z,99340.59
2018-08-25T03:09:26.351Z,99337.91
2018-08-25T03:11:55.008Z,99343.26
2018-08-25T03:14:23.703Z,99335.16
2018-08-25T03:16:52.724Z,99333.53
2018-08-25T03:19:21.908Z,99332.95
2018-08-25T03:21:50.559Z,99333.21
2018-08-25T03:24:20.385Z,99337.81
2018-08-25T03:26:49.249Z,99335.64
2018-08-25T03:29:18.023Z,99331.60
2018-08-25T03:31:46.954Z,99323.28
2018-08-25T03:34:15.728Z,99321.94
2018-08-25T03:36:44.599Z,99322.43
2018-08-25T03:39:14.537Z,99317.80
2018-08-25T03:41:43.336Z,99319.14
2018-08-25T03:44:12.386Z,99317.30
2018-08-25T03:46:41.377Z,99321.03
2018-08-25T03:49:11.252Z,99315.91
2018-08-25T03:51:39.937Z,99324.59
2018-08-25T03:54:08.766Z,99327.77
2018-08-25T03:56:37.440Z,99332.63
2018-08-25T03:59:06.318Z,99332.36
2018-08-25T04:01:35.777Z,99346.88
2018-08-25T04:04:04.574Z,99352.24
2018-08-25T04:06:33.317Z,99355.48
2018-08-25T04:09:02.138Z,99351.17
2018-08-25T04:11:30.933Z,99351.17
2018-08-25T04:13:59.903Z,99344.95
2018-08-25T04:16:29.135Z,99340.88
2018-08-25T04:18:58.120Z,99351.44
2018-08-25T04:21:27.491Z,99364.77
2018-08-25T04:23:56.329Z,99366.67
2018-08-25T04:26:26.053Z,99368.51
2018-08-25T04:28:54.793Z,99371.46
2018-08-25T04:31:23.802Z,99368.76
2018-08-25T04:33:52.502Z,99374.20
2018-08-25T04:36:21.400Z,99363.75
2018-08-25T04:38:50.911Z,99358.69
2018-08-25T04:41:20.044Z,99362.68
2018-08-25T04:43:49.108Z,99355.18
2018-08-25T04:46:17.802Z,99344.70
2018-08-25T04:48:46.695Z,99350.14
2018-08-25T04:51:15.991Z,99348.25
2018-08-25T04:53:45.442Z,99345.89
2018-08-25T04:56:14.194Z,99338.09
2018-08-25T04:58:42.992Z,99337.83
2018-08-25T05:01:12.608Z,99338.09
2018-08-25T05:03:41.301Z,99348.93
2018-08-25T05:06:10.212Z,99343.27
2018-08-25T05:08:39.213Z,99334.62
2018-08-25T05:11:08.701Z,99321.13
2018-08-25T05:13:37.589Z,99324.13
2018-08-25T05:16:06.627Z,99321.93
2018-08-25T05:18:36.122Z,99331.41
2018-08-25T05:21:05.393Z,99335.19
2018-08-25T05:23:34.202Z,99340.02
2018-08-25T05:26:03.700Z,99340.29
2018-08-25T05:28:32.699Z,99346.50
2018-08-25T05:31:01.606Z,99353.48
2018-08-25T05:33:30.288Z,99348.36
2018-08-25T05:35:59.515Z,99359.66
2018-08-25T05:38:28.320Z,99372.39
2018-08-25T05:40:57.189Z,99376.44
2018-08-25T05:43:25.986Z,99372.92
2018-08-25T05:45:54.768Z,99366.72
2018-08-25T05:48:23.450Z,99367.05
2018-08-25T05:50:52.510Z,99357.84
2018-08-25T05:53:21.179Z,99361.09
2018-08-25T05:55:50.647Z,99364.36
2018-08-25T05:58:19.563Z,99369.28
2018-08-25T06:00:49.074Z,99372.01
2018-08-25T06:03:18.583Z,99361.73
2018-08-25T06:05:47.511Z,99366.34
2018-08-25T06:08:16.363Z,99370.42
2018-08-25T06:10:45.158Z,99373.41
2018-08-25T06:13:14.740Z,99371.52
2018-08-25T06:15:43.571Z,99372.11
2018-08-25T06:18:12.243Z,99366.42
2018-08-25T06:33:40.513Z,99380.19
2018-08-25T06:36:10.194Z,99379.92
2018-08-25T06:38:39.548Z,99377.19
2018-08-25T06:41:08.452Z,99383.44
2018-08-25T06:43:37.717Z,99385.31
2018-08-25T06:46:08.683Z,99389.66
2018-08-25T06:48:39.833Z,99388.28
2018-08-25T06:51:09.014Z,99379.33
2018-08-25T06:53:38.195Z,99375.55
2018-08-25T06:56:06.903Z,99351.73
2018-08-25T06:58:35.624Z,99360.88
2018-08-25T07:01:04.506Z,99362.20
2018-08-25T07:03:33.332Z,99363.22
2018-08-25T07:06:02.816Z,99366.86
2018-08-25T07:08:32.867Z,99381.94
2018-08-25T07:11:01.614Z,99392.97
2018-08-25T07:13:30.333Z,99397.27
2018-08-25T07:15:59.195Z,99393.75
2018-08-25T07:18:28.004Z,99382.38
2018-08-25T07:20:56.788Z,99387.96
2018-08-25T07:23:25.590Z,99389.98
2018-08-25T07:25:54.500Z,99388.02
2018-08-25T07:28:23.935Z,99390.02
2018-08-25T07:30:52.794Z,99385.17
2018-08-25T07:33:21.582Z,99392.02
2018-08-25T07:35:50.382Z,99406.13
2018-08-25T07:38:19.318Z,99403.31
2018-08-25T07:40:48.844Z,99398.78
2018-08-25T07:43:17.679Z,99392.49
2018-08-25T07:45:46.448Z,99386.30
2018-08-25T07:48:15.264Z,99390.28
2018-08-25T07:50:44.076Z,99394.70
2018-08-25T07:53:12.953Z,99398.51
2018-08-25T07:55:42.044Z,99409.13
2018-08-25T07:58:11.780Z,99407.35
2018-08-25T08:00:40.564Z,99406.80
2018-08-25T08:03:09.437Z,99398.94
2018-08-25T08:05:39.268Z,99399.87
2018-08-25T08:08:09.300Z,99402.48
2018-08-25T08:10:38.079Z,99397.45
2018-08-25T08:13:06.989Z,99398.53
2018-08-25T08:15:37.330Z,99386.88
2018-08-25T08:18:07.336Z,99381.56
2018-08-25T08:20:36.718Z,99378.10
2018-08-25T08:23:06.798Z,99377.44
2018-08-25T08:25:36.213Z,99374.39
2018-08-25T08:28:06.483Z,99372.78
2018-08-25T08:30:35.858Z,99379.52
2018-08-25T08:33:05.352Z,99374.78
2018-08-25T08:35:34.937Z,99375.53
2018-08-25T08:38:04.404Z,99372.82
2018-08-25T08:40:33.750Z,99376.05
2018-08-25T08:43:03.147Z,99375.02
2018-08-25T08:45:32.823Z,99378.17
2018-08-25T08:48:02.259Z,99385.16
2018-08-25T08:50:31.781Z,99384.53
2018-08-25T08:53:01.854Z,99390.80
2018-08-25T08:55:31.861Z,99385.21
2018-08-25T08:58:01.335Z,99388.09
2018-08-25T09:00:30.983Z,99392.75
2018-08-25T09:03:00.311Z,99398.58
2018-08-25T09:05:30.836Z,99404.19
2018-08-25T09:08:00.104Z,99400.97
2018-08-25T09:10:29.389Z,99401.66
2018-08-25T09:12:59.156Z,99400.92
2018-08-25T09:15:29.586Z,99401.36
2018-08-25T09:17:59.764Z,99398.14
2018-08-25T09:20:29.081Z,99402.29
2018-08-25T09:22:58.372Z,99402.59
2018-08-25T09:25:27.688Z,99400.11
2018-08-25T09:27:57.660Z,99400.42
2018-08-25T09:30:27.369Z,99411.73
2018-08-25T09:32:56.772Z,99403.79
2018-08-25T09:35:26.145Z,99405.67
2018-08-25T09:37:55.564Z,99402.42
2018-08-25T09:40:24.912Z,99399.02
2018-08-25T09:42:54.236Z,99395.28
2018-08-25T09:45:24.955Z,99390.08
2018-08-25T09:47:54.341Z,99388.47
2018-08-25T09:50:23.901Z,99388.01
2018-08-25T09:52:54.114Z,99380.30
2018-08-25T09:55:23.656Z,99379.02
2018-08-25T09:57:53.807Z,99378.86
2018-08-25T10:00:23.071Z,99379.77
2018-08-25T10:02:52.517Z,99379.64
2018-08-25T10:05:21.938Z,99382.63
2018-08-25T10:07:51.470Z,99373.60
2018-08-25T10:10:20.901Z,99372.25
2018-08-25T10:12:50.260Z,99353.21
2018-08-25T10:15:19.949Z,99359.73
2018-08-25T10:17:49.482Z,99351.00
2018-08-25T10:20:19.758Z,99351.92
2018-08-25T10:22:49.205Z,99356.55
2018-08-25T10:25:18.660Z,99353.30
2018-08-25T10:27:47.956Z,99350.39
2018-08-25T10:30:17.860Z,99352.41
2018-08-25T10:32:47.204Z,99347.16
2018-08-25T10:35:17.436Z,99343.28
2018-08-25T10:37:46.757Z,99339.45
2018-08-25T10:40:16.158Z,99347.76
2018-08-25T10:42:45.453Z,99346.66
2018-08-25T10:45:14.758Z,99345.89
2018-08-25T10:47:44.263Z,99342.80
2018-08-25T10:50:13.565Z,99348.58
2018-08-25T10:52:42.872Z,99344.59
2018-08-25T10:55:12.157Z,99348.19
2018-08-25T10:57:41.477Z,99349.73
2018-08-25T11:00:10.989Z,99351.63
2018-08-25T11:02:40.300Z,99340.83
2018-08-25T11:05:09.706Z,99349.69
2018-08-25T11:07:40.078Z,99344.33
2018-08-25T11:10:09.594Z,99343.70
2018-08-25T11:12:39.291Z,99340.75
2018-08-25T11:15:08.785Z,99335.84
2018-08-25T11:17:38.797Z,99345.17
2018-08-25T11:20:08.181Z,99342.12
2018-08-25T11:22:37.506Z,99339.08
2018-08-25T11:25:07.933Z,99339.33
2018-08-25T11:27:37.339Z,99340.88
2018-08-25T11:30:06.952Z,99344.59
2018-08-25T11:32:36.287Z,99338.59
2018-08-25T11:35:06.814Z,99334.84
2018-08-25T11:37:36.399Z,99330.23
2018-08-25T11:40:07.027Z,99331.30
2018-08-25T11:42:36.701Z,99328.44
2018-08-25T11:45:07.051Z,99329.23
2018-08-25T11:47:37.148Z,99332.09
2018-08-25T11:50:06.917Z,99323.42
2018-08-25T11:52:36.323Z,99326.09
2018-08-25T11:55:06.820Z,99319.39
2018-08-25T11:57:36.938Z,99324.00
2018-08-25T12:00:07.348Z,99316.94
2018-08-25T12:02:36.934Z,99316.91
2018-08-25T12:05:06.647Z,99321.09
2018-08-25T12:07:36.672Z,99314.34
2018-08-25T12:10:07.580Z,99313.52
2018-08-25T12:12:36.859Z,99317.64
2018-08-25T12:15:07.472Z,99320.13
2018-08-25T12:17:37.310Z,99322.19
2018-08-25T12:20:07.023Z,99323.13
2018-08-25T12:34:34.409Z,99327.86
2018-08-25T12:37:03.812Z,99324.20
2018-08-25T12:39:33.251Z,99325.25
2018-08-25T12:42:02.828Z,99322.44
2018-08-25T12:44:32.122Z,99321.87
2018-08-25T12:47:02.258Z,99325.59
2018-08-25T12:49:31.609Z,99320.16
2018-08-25T12:52:01.013Z,99321.30
2018-08-25T12:54:30.298Z,99316.50
2018-08-25T12:56:59.675Z,99316.34
2018-08-25T12:59:29.145Z,99311.52
2018-08-25T13:01:58.491Z,99301.39
2018-08-25T13:04:28.487Z,99303.34
2018-08-25T13:06:59.063Z,99301.81
2018-08-25T13:09:29.256Z,99301.41
2018-08-25T13:11:57.932Z,99301.40
2018-08-25T13:14:27.772Z,99298.91
2018-08-25T13:16:57.191Z,99296.02
2018-08-25T13:19:26.599Z,99287.98
2018-08-25T13:21:56.120Z,99287.38
2018-08-25T13:24:26.315Z,99290.44
2018-08-25T13:26:55.632Z,99288.39
2018-08-25T13:29:25.855Z,99282.96
2018-08-25T13:31:55.597Z,99285.61
2018-08-25T13:34:25.193Z,99284.65
2018-08-25T13:36:55.187Z,99286.44
2018-08-25T13:39:24.621Z,99285.58
2018-08-25T13:41:53.415Z,99280.11
2018-08-25T13:44:22.994Z,99275.59
2018-08-25T13:46:52.535Z,99281.55
2018-08-25T13:49:21.942Z,99271.50
2018-08-25T13:51:51.073Z,99263.48
2018-08-25T13:54:19.933Z,99261.33
2018-08-25T13:56:49.028Z,99263.98
2018-08-25T13:59:17.735Z,99263.72
2018-08-25T14:01:46.553Z,99263.06
2018-08-25T14:04:15.523Z,99258.86
2018-08-25T14:06:44.319Z,99259.70
2018-08-25T14:09:13.228Z,99258.15
2018-08-25T14:11:42.043Z,99262.08
2018-08-25T14:14:11.413Z,99260.72
2018-08-25T14:16:42.240Z,99253.16
2018-08-25T14:19:11.509Z,99249.42
2018-08-25T14:21:40.240Z,99247.69
2018-08-25T14:24:09.036Z,99243.59
2018-08-25T14:26:38.449Z,99249.95
2018-08-25T14:29:07.547Z,99246.97
2018-08-25T14:31:36.679Z,99237.63
2018-08-25T14:34:06.257Z,99240.75
2018-08-25T14:36:35.065Z,99243.97
2018-08-25T14:39:05.524Z,99237.78
2018-08-25T14:41:34.512Z,99240.41
2018-08-25T14:44:04.416Z,99242.27
2018-08-25T14:46:33.309Z,99238.20
2018-08-25T14:49:02.667Z,99241.42
2018-08-25T14:51:32.165Z,99229.08
2018-08-25T14:54:01.010Z,99227.44
2018-08-25T14:56:29.993Z,99228.20
2018-08-25T14:58:59.787Z,99232.88
2018-08-25T15:01:28.618Z,99231.27
2018-08-25T15:03:58.732Z,99232.20
2018-08-25T15:06:27.538Z,99234.45
2018-08-25T15:08:56.841Z,99241.23
2018-08-25T15:11:25.747Z,99238.27
2018-08-25T15:13:54.692Z,99253.02
2018-08-25T15:16:25.200Z,99263.30
2018-08-25T15:18:54.282Z,99271.13
2018-08-25T15:21:23.187Z,99271.08
2018-08-25T15:23:51.957Z,99268.91
2018-08-25T15:26:20.804Z,99270.21
2018-08-25T15:28:50.221Z,99284.61
2018-08-25T15:31:19.599Z,99285.11
2018-08-25T15:33:48.443Z,99294.33
2018-08-25T15:36:17.657Z,99288.83
2018-08-25T15:38:47.069Z,99291.42
2018-08-25T15:41:15.736Z,99298.31
2018-08-25T15:43:45.172Z,99299.54
2018-08-25T15:46:14.452Z,99305.94
2018-08-25T15:48:43.184Z,99313.63
2018-08-25T15:51:12.192Z,99310.70
2018-08-25T15:53:41.055Z,99307.11
2018-08-25T15:56:09.767Z,99309.28
2018-08-25T15:58:38.643Z,99315.00
2018-08-25T16:01:08.310Z,99318.02
2018-08-25T16:03:38.537Z,99311.47
2018-08-25T16:08:35.353Z,99310.44
2018-08-25T16:11:04.048Z,99309.83
2018-08-25T16:13:32.901Z,99310.47
2018-08-25T16:16:02.348Z,99307.04
2018-08-25T16:18:31.178Z,99303.27
2018-08-25T16:21:00.037Z,99298.42
2018-08-25T16:23:28.818Z,99294.95
2018-08-25T16:25:57.729Z,99289.86
2018-08-25T16:28:27.031Z,99287.95
2018-08-25T16:30:56.210Z,99297.03
2018-08-25T16:33:25.039Z,99301.69
2018-08-25T16:35:54.025Z,99296.27
2018-08-25T16:38:23.323Z,99302.08
2018-08-25T16:40:52.228Z,99305.16
2018-08-25T16:43:21.222Z,99304.69
2018-08-25T16:45:50.536Z,99301.23
2018-08-25T16:48:20.039Z,99297.59
2018-08-25T16:50:49.156Z,99303.86
2018-08-25T16:53:19.287Z,99294.17
2018-08-25T16:55:48.840Z,99301.84
2018-08-25T16:58:17.873Z,99296.48
2018-08-25T17:00:47.300Z,99291.89
2018-08-25T17:03:16.787Z,99288.98
2018-08-25T17:05:45.922Z,99293.41
2018-08-25T17:08:14.898Z,99295.31
2018-08-25T17:10:43.919Z,99287.47
2018-08-25T17:13:14.150Z,99287.25
2018-08-25T17:15:44.338Z,99289.25
2018-08-25T17:18:13.922Z,99286.86
2018-08-25T17:20:46.330Z,99287.48
2018-08-25T17:23:15.719Z,99283.25
2018-08-25T17:25:44.525Z,99282.70
2018-08-25T17:28:13.830Z,99287.34
2018-08-25T17:30:44.659Z,99296.31
2018-08-25T17:33:13.475Z,99295.28
2018-08-25T17:35:42.375Z,99293.68
2018-08-25T17:38:11.892Z,99292.07
2018-08-25T17:40:41.407Z,99307.73
2018-08-25T17:43:10.178Z,99315.30
2018-08-25T17:45:39.002Z,99313.13
2018-08-25T17:48:08.055Z,99318.27
2018-08-25T17:50:38.075Z,99327.72
2018-08-25T17:53:07.175Z,99331.19
2018-08-25T17:55:35.978Z,99339.52
2018-08-25T17:58:04.770Z,99345.39
2018-08-25T18:00:34.113Z,99349.06
2018-08-25T18:03:03.283Z,99340.65
2018-08-25T18:05:32.119Z,99344.12
2018-08-25T18:08:01.160Z,99350.86
2018-08-25T18:10:30.169Z,99350.00
2018-08-25T18:12:59.150Z,99354.53
2018-08-25T18:15:27.967Z,99352.31
2018-08-25T18:17:56.891Z,99357.64
2018-08-25T18:20:26.583Z,99359.41
2018-08-25T18:22:55.371Z,99362.55
2018-08-25T18:25:24.352Z,99369.23
2018-08-25T18:27:54.082Z,99374.53
2018-08-25T18:30:23.621Z,99369.30
2018-08-25T18:32:52.716Z,99378.94
2018-08-25T18:35:21.793Z,99375.67
2018-08-25T18:37:50.793Z,99371.30
2018-08-25T18:40:19.689Z,99372.58
2018-08-25T18:42:48.367Z,99374.41
2018-08-25T18:45:17.101Z,99367.81
2018-08-25T18:47:46.162Z,99376.41
2018-08-25T18:50:15.003Z,99393.65
2018-08-25T18:52:44.274Z,99388.45
2018-08-25T18:55:13.338Z,99392.91
2018-08-25T18:57:42.743Z,99402.01
2018-08-25T19:00:11.811Z,99394.19
2018-08-25T19:02:40.663Z,99393.36
2018-08-25T19:05:09.553Z,99403.27
2018-08-25T19:07:38.260Z,99410.11
2018-08-25T19:10:07.340Z,99409.88
2018-08-25T19:12:36.039Z,99399.83
2018-08-25T19:15:04.952Z,99404.32
2018-08-25T19:17:35.425Z,99410.42
2018-08-25T19:20:04.990Z,99421.97
2018-08-25T19:22:33.771Z,99420.67
2018-08-25T19:25:02.771Z,99425.52
2018-08-25T19:27:31.565Z,99427.39
2018-08-25T19:30:00.840Z,99427.42
2018-08-25T19:32:29.573Z,99428.54
2018-08-25T19:34:59.173Z,99426.12
2018-08-25T19:37:28.083Z,99432.33
2018-08-25T19:39:56.904Z,99440.12
2018-08-25T19:42:25.764Z,99445.55
2018-08-25T19:44:54.464Z,99445.36
2018-08-25T19:47:23.352Z,99451.14
2018-08-25T19:49:52.492Z,99457.41
2018-08-25T19:52:21.248Z,99458.48
2018-08-25T19:54:50.175Z,99461.19
2018-08-25T19:57:18.947Z,99474.77
2018-08-25T19:59:47.824Z,99468.69
2018-08-25T20:02:16.850Z,99466.27
2018-08-25T20:04:46.166Z,99462.31
2018-08-25T20:07:14.852Z,99469.95
2018-08-25T20:09:43.750Z,99473.53
2018-08-25T20:12:12.515Z,99473.45
2018-08-25T20:14:41.308Z,99479.43
2018-08-25T20:17:10.298Z,99490.41
2018-08-25T20:19:39.764Z,99488.23
2018-08-25T20:22:09.632Z,99486.28
2018-08-25T20:24:39.345Z,99497.63
2018-08-25T20:27:08.752Z,99496.60
2018-08-25T20:29:37.623Z,99503.61
2018-08-25T20:32:07.000Z,99500.40
2018-08-25T20:34:35.744Z,99494.27
2018-08-25T20:37:04.524Z,99499.92
2018-08-25T20:39:33.405Z,99499.91
2018-08-25T20:42:02.315Z,99498.70
2018-08-25T20:44:31.011Z,99501.67
2018-08-25T20:46:59.668Z,99495.73
2018-08-25T20:49:28.508Z,99494.08
2018-08-25T20:51:57.607Z,99498.33
2018-08-25T20:54:26.402Z,99512.33
2018-08-25T20:56:55.413Z,99509.84
2018-08-25T20:59:24.921Z,99514.95
2018-08-25T21:01:53.706Z,99515.47
2018-08-25T21:04:23.097Z,99511.38
2018-08-25T21:06:51.820Z,99510.55
2018-08-25T21:09:20.594Z,99517.66
2018-08-25T21:11:49.288Z,99513.93
2018-08-25T21:14:18.708Z,99512.58
2018-08-25T21:16:47.650Z,99522.94
2018-08-25T21:19:16.359Z,99519.56
2018-08-25T21:21:45.066Z,99517.94
2018-08-25T21:24:13.849Z,99516.07
2018-08-25T21:26:42.537Z,99524.75
2018-08-25T21:29:11.241Z,99526.33
2018-08-25T21:31:40.334Z,99531.17
2018-08-25T21:34:09.244Z,99526.59
2018-08-25T21:36:38.779Z,99531.77
2018-08-25T21:39:10.143Z,99530.91
2018-08-25T21:41:38.935Z,99528.80
2018-08-25T21:44:08.174Z,99538.25
2018-08-25T21:46:36.929Z,99535.56
2018-08-25T21:49:05.916Z,99532.33
2018-08-25T21:51:35.836Z,99535.06
2018-08-25T21:54:04.753Z,99537.77
2018-08-25T21:56:33.496Z,99539.96
2018-08-25T21:59:02.188Z,99551.21
2018-08-25T22:01:37.059Z,99549.48
2018-08-25T22:04:06.003Z,99553.33
2018-08-25T22:06:35.633Z,99552.99
2018-08-25T22:09:07.048Z,99552.55
2018-08-25T22:11:35.882Z,99556.53
2018-08-25T22:14:04.776Z,99557.53
2018-08-25T22:16:34.183Z,99570.12
2018-08-25T22:19:03.490Z,99571.66
2018-08-25T22:21:32.329Z,99568.11
2018-08-25T22:24:01.926Z,99567.24
2018-08-25T22:26:31.403Z,99572.84
2018-08-25T22:29:00.199Z,99572.83
2018-08-25T22:31:29.395Z,99577.69
2018-08-25T22:33:58.810Z,99578.78
2018-08-25T22:36:27.806Z,99580.41
2018-08-25T22:38:56.820Z,99582.56
2018-08-25T22:41:25.885Z,99581.99
2018-08-25T22:43:54.751Z,99584.59
2018-08-25T22:46:24.720Z,99590.20
2018-08-25T22:48:53.844Z,99586.93
2018-08-25T22:51:23.740Z,99589.60
2018-08-25T22:53:52.600Z,99594.12
2018-08-25T22:56:21.292Z,99591.13
2018-08-25T22:58:50.892Z,99587.92
2018-08-25T23:01:19.828Z,99583.45
2018-08-25T23:03:49.245Z,99575.89
2018-08-25T23:06:18.195Z,99573.91
2018-08-25T23:08:47.236Z,99580.00
2018-08-25T23:11:15.900Z,99577.05
2018-08-25T23:13:44.671Z,99570.83
2018-08-25T23:16:14.484Z,99569.13
2018-08-25T23:18:44.214Z,99554.15
2018-08-25T23:21:14.337Z,99557.10
2018-08-25T23:23:43.081Z,99562.69
2018-08-25T23:26:11.977Z,99569.34
2018-08-25T23:28:40.791Z,99563.81
2018-08-25T23:31:09.778Z,99565.87
2018-08-25T23:33:38.500Z,99569.63
2018-08-25T23:36:07.554Z,99571.94
2018-08-25T23:38:38.291Z,99564.76
2018-08-25T23:41:07.794Z,99569.33
2018-08-25T23:43:37.872Z,99570.94
2018-08-25T23:46:06.728Z,99574.42
2018-08-25T23:48:36.235Z,99577.00
2018-08-25T23:51:05.732Z,99574.89
2018-08-25T23:53:34.766Z,99574.69
2018-08-25T23:56:04.223Z,99588.36
2018-08-25T23:58:33.667Z,99589.87
